Time;durP1;ratioP1;P1;durP2;ratioP2;P2;SDS_P1;SDS_P2;PMS_P1;PMS_P2;Temp;Humidity;BMP_temperature;BMP_pressure;BME280_temperature;BME280_humidity;BME280_pressure;Samples;Min_cycle;Max_cycle;Signal;HPM_P1;HPM_P2
2021/10/30 00:08:50;;;;;;;14.02;6.05;;;12.10;99.90;;;;;;6773502;87;20208;-81
2021/10/30 00:18:51;;;;;;;11.93;6.12;;;12.20;99.90;;;;;;6767864;87;20216;-79
2021/10/30 00:28:51;;;;;;;11.38;5.87;;;12.00;99.90;;;;;;6769815;87;20740;-80
2021/10/30 00:38:52;;;;;;;11.80;5.93;;;11.90;99.90;;;;;;6771897;87;20188;-79
2021/10/30 00:48:53;;;;;;;9.88;5.37;;;11.80;99.90;;;;;;6773254;87;20173;-80
2021/10/30 00:58:55;;;;;;;12.95;5.53;;;11.70;99.90;;;;;;6772354;87;20237;-80
2021/10/30 01:08:56;;;;;;;6.72;3.85;;;11.90;99.90;;;;;;6771157;88;20196;-80
2021/10/30 01:18:56;;;;;;;8.38;4.75;;;12.10;99.90;;;;;;6774285;88;20179;-80
2021/10/30 01:29:00;;;;;;;9.43;5.22;;;12.10;99.90;;;;;;6772065;87;20673;-79
2021/10/30 01:39:05;;;;;;;10.18;4.70;;;12.10;99.90;;;;;;6717816;88;20995;-80
2021/10/30 01:49:05;;;;;;;12.53;4.93;;;12.10;99.90;;;;;;6718213;88;20240;-80
2021/10/30 01:59:06;;;;;;;8.20;4.85;;;12.10;99.90;;;;;;6750268;88;20197;-80
2021/10/30 02:09:06;;;;;;;6.45;3.67;;;12.00;99.90;;;;;;6763536;88;20213;-78
2021/10/30 02:19:07;;;;;;;8.90;4.53;;;12.10;99.90;;;;;;6763656;88;20698;-79
2021/10/30 02:29:07;;;;;;;9.32;4.18;;;12.10;99.90;;;;;;6768201;88;20252;-80
2021/10/30 02:39:10;;;;;;;7.87;3.95;;;12.10;99.90;;;;;;6768123;87;20154;-79
2021/10/30 02:49:11;;;;;;;7.95;4.20;;;12.10;99.90;;;;;;6767860;88;20791;-79
2021/10/30 02:59:12;;;;;;;9.48;4.10;;;12.10;99.90;;;;;;6767435;88;20201;-79
2021/10/30 03:09:12;;;;;;;8.32;4.87;;;12.20;99.90;;;;;;6714005;88;21004;-79
2021/10/30 03:19:13;;;;;;;8.02;4.28;;;12.20;99.90;;;;;;6733110;78;20184;-75
2021/10/30 03:29:13;;;;;;;8.35;4.43;;;12.10;99.90;;;;;;6756449;87;20176;-76
2021/10/30 03:39:14;;;;;;;9.13;4.40;;;12.10;99.90;;;;;;6751187;87;20311;-76
2021/10/30 03:49:14;;;;;;;8.05;4.55;;;12.10;99.90;;;;;;6751617;87;20710;-75
2021/10/30 03:59:15;;;;;;;12.43;4.85;;;12.00;99.90;;;;;;6749423;87;20314;-74
2021/10/30 04:09:18;;;;;;;11.07;4.20;;;12.00;99.90;;;;;;6751367;87;20706;-75
2021/10/30 04:19:19;;;;;;;8.73;4.72;;;11.90;99.90;;;;;;6750440;87;20230;-75
2021/10/30 04:29:19;;;;;;;10.45;5.10;;;11.90;99.90;;;;;;6755074;87;21057;-74
2021/10/30 04:39:20;;;;;;;11.23;5.18;;;11.90;99.90;;;;;;6752088;87;20273;-75
2021/10/30 04:49:20;;;;;;;8.65;4.45;;;11.90;99.90;;;;;;6756522;87;20179;-75
2021/10/30 04:59:21;;;;;;;8.13;4.35;;;11.90;99.90;;;;;;6751392;87;20179;-74
2021/10/30 05:09:21;;;;;;;8.13;4.55;;;12.00;99.90;;;;;;6752581;87;20202;-75
2021/10/30 05:19:22;;;;;;;8.18;4.30;;;12.00;99.90;;;;;;6746078;87;20199;-75
2021/10/30 05:29:23;;;;;;;7.85;3.60;;;12.00;99.90;;;;;;6755171;87;20202;-75
2021/10/30 05:39:23;;;;;;;12.20;4.40;;;12.20;99.90;;;;;;6745924;87;20233;-75
2021/10/30 05:49:25;;;;;;;7.53;3.80;;;12.40;99.90;;;;;;6752146;87;21056;-74
2021/10/30 05:59:27;;;;;;;6.47;3.67;;;12.40;99.90;;;;;;6759868;87;20180;-75
2021/10/30 06:09:28;;;;;;;6.25;2.87;;;12.40;99.90;;;;;;6768202;87;20351;-75
2021/10/30 06:19:28;;;;;;;9.20;4.20;;;12.30;99.90;;;;;;6753592;87;20240;-74
2021/10/30 06:29:30;;;;;;;10.65;5.03;;;12.30;99.90;;;;;;6750501;87;20229;-75
2021/10/30 06:39:31;;;;;;;9.15;5.15;;;12.20;99.90;;;;;;6751679;87;20196;-77
2021/10/30 06:49:32;;;;;;;8.20;5.18;;;12.20;99.90;;;;;;6754392;87;20276;-77
2021/10/30 06:59:35;;;;;;;7.93;5.00;;;12.00;99.90;;;;;;6757477;87;20185;-74
2021/10/30 07:09:35;;;;;;;7.15;4.00;;;11.90;99.90;;;;;;6753375;87;20188;-75
2021/10/30 07:19:36;;;;;;;7.87;4.95;;;11.90;99.90;;;;;;6755501;88;20326;-79
2021/10/30 07:29:37;;;;;;;8.18;5.57;;;11.90;99.90;;;;;;6753679;87;20274;-74
2021/10/30 07:39:37;;;;;;;8.75;4.85;;;12.00;99.90;;;;;;6750510;87;20208;-77
2021/10/30 07:49:38;;;;;;;12.33;5.33;;;12.00;99.90;;;;;;6753656;88;20188;-75
2021/10/30 07:59:38;;;;;;;9.48;5.30;;;11.90;99.90;;;;;;6763056;88;20672;-77
2021/10/30 08:09:41;;;;;;;9.32;5.22;;;11.80;99.90;;;;;;6760624;88;20253;-79
2021/10/30 08:19:41;;;;;;;9.82;5.53;;;11.70;99.90;;;;;;6761968;87;20312;-78
2021/10/30 08:29:43;;;;;;;8.45;4.93;;;11.80;99.90;;;;;;6758947;88;20169;-78
2021/10/30 08:39:43;;;;;;;9.82;5.30;;;11.80;99.90;;;;;;6760237;88;20180;-78
2021/10/30 08:49:44;;;;;;;7.20;4.00;;;11.80;99.90;;;;;;6751675;87;20206;-78
2021/10/30 08:59:46;;;;;;;10.73;6.10;;;11.90;99.90;;;;;;6760472;87;20554;-78
2021/10/30 09:09:47;;;;;;;10.95;6.57;;;11.90;99.90;;;;;;6754148;87;20932;-78
2021/10/30 09:19:50;;;;;;;13.93;6.80;;;12.00;99.90;;;;;;6763762;87;20216;-78
2021/10/30 09:29:57;;;;;;;9.65;5.87;;;12.00;99.90;;;;;;6761552;87;20178;-75
2021/10/30 09:40:28;;;;;;;12.30;5.78;;;12.00;99.90;;;;;;6760488;87;20192;-76
2021/10/30 09:50:31;;;;;;;9.77;6.07;;;12.20;99.90;;;;;;6753355;88;20257;-77
2021/10/30 10:00:32;;;;;;;8.10;5.20;;;12.20;99.90;;;;;;6756114;87;21082;-76
2021/10/30 10:10:32;;;;;;;10.98;5.70;;;12.20;99.90;;;;;;6752934;87;20362;-76
2021/10/30 10:20:34;;;;;;;11.80;4.68;;;12.40;99.90;;;;;;6757908;87;20278;-76
2021/10/30 10:30:59;;;;;;;8.82;5.37;;;12.40;99.90;;;;;;6754931;87;20277;-75
2021/10/30 10:41:00;;;;;;;9.70;5.05;;;12.50;99.90;;;;;;6751922;87;20188;-74
2021/10/30 10:51:21;;;;;;;8.80;5.07;;;12.50;99.90;;;;;;6753220;87;20735;-75
2021/10/30 11:01:21;;;;;;;8.88;4.90;;;12.60;99.90;;;;;;6753784;87;20566;-76
2021/10/30 11:11:25;;;;;;;8.45;4.68;;;12.70;99.90;;;;;;6748895;87;20189;-76
2021/10/30 11:21:33;;;;;;;8.00;4.47;;;12.80;99.90;;;;;;6750214;87;20214;-76
2021/10/30 11:31:33;;;;;;;11.18;4.90;;;12.90;99.90;;;;;;6751813;87;20203;-76
2021/10/30 11:41:36;;;;;;;8.00;4.18;;;12.90;99.90;;;;;;6750338;87;20608;-74
2021/10/30 11:51:40;;;;;;;6.30;4.22;;;13.00;99.90;;;;;;6753501;87;20600;-75
2021/10/30 12:01:46;;;;;;;11.05;4.85;;;12.90;99.90;;;;;;6757722;87;21077;-75
2021/10/30 12:11:49;;;;;;;9.63;4.30;;;12.90;99.90;;;;;;6756080;88;20214;-76
2021/10/30 12:22:00;;;;;;;10.82;4.68;;;12.90;99.90;;;;;;6761290;88;20214;-78
2021/10/30 12:32:02;;;;;;;7.37;4.22;;;13.00;99.90;;;;;;6753316;88;20191;-77
2021/10/30 12:42:05;;;;;;;7.82;4.57;;;12.90;99.90;;;;;;6755332;88;20182;-76
2021/10/30 12:52:12;;;;;;;8.35;4.47;;;13.00;99.90;;;;;;6756072;88;20225;-76
2021/10/30 13:02:24;;;;;;;10.27;4.10;;;13.10;99.90;;;;;;6754923;88;20292;-76
2021/10/30 13:12:26;;;;;;;7.10;3.62;;;13.20;99.90;;;;;;6755711;87;20219;-76
2021/10/30 13:22:27;;;;;;;7.62;3.97;;;13.20;99.90;;;;;;6754101;88;20187;-76
2021/10/30 13:32:27;;;;;;;6.33;3.20;;;13.40;99.90;;;;;;6754613;88;20648;-77
2021/10/30 13:42:28;;;;;;;6.40;3.60;;;13.40;99.90;;;;;;6752143;88;20496;-77
2021/10/30 13:52:29;;;;;;;6.50;3.70;;;13.40;99.90;;;;;;6752485;88;20547;-77
2021/10/30 14:02:30;;;;;;;4.78;2.95;;;13.30;99.90;;;;;;6753481;88;21033;-75
2021/10/30 14:12:30;;;;;;;6.00;3.40;;;13.20;99.90;;;;;;6749839;87;20225;-75
2021/10/30 14:22:31;;;;;;;4.85;2.58;;;13.20;99.90;;;;;;6742418;88;20232;-76
2021/10/30 14:32:31;;;;;;;4.78;2.75;;;13.20;99.90;;;;;;6746841;88;20308;-76
2021/10/30 14:42:33;;;;;;;6.70;3.62;;;13.00;99.90;;;;;;6758027;87;20326;-77
2021/10/30 14:52:33;;;;;;;7.05;3.60;;;12.80;99.90;;;;;;6747812;88;20641;-77
2021/10/30 15:02:34;;;;;;;4.37;2.85;;;12.60;99.90;;;;;;6745570;88;20212;-77
2021/10/30 15:12:35;;;;;;;7.78;4.22;;;12.50;99.90;;;;;;6748686;88;20171;-78
2021/10/30 15:22:36;;;;;;;7.72;4.32;;;12.40;99.90;;;;;;6746790;88;20248;-78
2021/10/30 15:32:36;;;;;;;9.43;4.53;;;12.40;99.90;;;;;;6748407;88;20196;-77
2021/10/30 15:42:40;;;;;;;7.10;3.60;;;12.50;99.90;;;;;;6761523;87;20192;-77
2021/10/30 15:52:41;;;;;;;7.80;4.43;;;12.50;99.90;;;;;;6750850;87;20508;-76
2021/10/30 16:02:42;;;;;;;6.30;3.47;;;12.50;99.90;;;;;;6745406;87;20316;-76
2021/10/30 16:12:43;;;;;;;7.05;3.72;;;12.60;99.90;;;;;;6747698;87;20188;-77
2021/10/30 16:22:43;;;;;;;8.60;3.80;;;12.60;99.90;;;;;;6745759;87;20620;-76
2021/10/30 16:32:44;;;;;;;5.75;2.97;;;12.70;99.90;;;;;;6746539;87;20246;-76
2021/10/30 16:42:44;;;;;;;5.95;3.03;;;12.80;99.90;;;;;;6748495;87;20223;-77
2021/10/30 16:52:46;;;;;;;5.63;3.40;;;12.80;99.90;;;;;;6743450;87;20198;-76
2021/10/30 17:02:46;;;;;;;5.57;3.20;;;12.90;99.90;;;;;;6747001;87;20481;-77
2021/10/30 17:12:47;;;;;;;7.47;3.67;;;12.90;99.90;;;;;;6745852;87;20308;-77
2021/10/30 17:22:47;;;;;;;7.45;3.95;;;12.90;99.90;;;;;;6750378;87;20183;-78
2021/10/30 17:32:50;;;;;;;5.78;3.60;;;13.00;99.90;;;;;;6751853;88;20668;-76
2021/10/30 17:42:50;;;;;;;4.78;3.12;;;12.90;99.90;;;;;;6745548;87;20289;-75
2021/10/30 17:52:51;;;;;;;6.65;3.50;;;13.00;99.90;;;;;;6738453;88;20368;-76
2021/10/30 18:02:55;;;;;;;5.07;3.53;;;13.00;99.90;;;;;;6740631;87;20644;-76
2021/10/30 18:12:56;;;;;;;5.57;3.83;;;13.10;99.90;;;;;;6745738;87;20672;-77
2021/10/30 18:22:57;;;;;;;6.90;3.90;;;13.10;99.90;;;;;;6747269;87;20693;-77
2021/10/30 18:32:57;;;;;;;6.67;3.80;;;13.10;99.90;;;;;;6743549;88;20177;-76
2021/10/30 18:42:59;;;;;;;7.70;4.10;;;13.00;99.90;;;;;;6745265;88;21221;-76
2021/10/30 18:53:00;;;;;;;6.28;4.05;;;13.00;99.90;;;;;;6748745;88;20228;-76
2021/10/30 19:03:02;;;;;;;9.50;4.30;;;13.00;99.90;;;;;;6746935;88;20226;-77
2021/10/30 19:13:02;;;;;;;7.60;4.28;;;13.00;99.90;;;;;;6750661;87;20355;-76
2021/10/30 19:23:03;;;;;;;8.57;4.72;;;12.70;99.90;;;;;;6750121;88;20187;-77
2021/10/30 19:33:03;;;;;;;7.87;4.62;;;12.70;99.90;;;;;;6749422;88;20199;-77
2021/10/30 19:43:04;;;;;;;7.03;4.32;;;12.70;99.90;;;;;;6751389;88;20208;-77
2021/10/30 19:53:05;;;;;;;7.85;5.03;;;12.60;99.90;;;;;;6754396;88;20213;-77
2021/10/30 20:03:05;;;;;;;9.88;4.80;;;12.40;99.90;;;;;;6748064;88;20321;-78
2021/10/30 20:13:06;;;;;;;8.45;5.28;;;12.30;99.90;;;;;;6748388;88;20562;-77
2021/10/30 20:23:07;;;;;;;8.63;4.40;;;12.40;99.90;;;;;;6738327;88;20213;-77
2021/10/30 20:33:08;;;;;;;7.95;4.65;;;12.40;99.90;;;;;;6752447;88;20314;-77
2021/10/30 20:43:13;;;;;;;5.90;4.10;;;12.40;99.90;;;;;;6752784;88;20196;-77
2021/10/30 20:53:13;;;;;;;6.53;4.32;;;12.40;99.90;;;;;;6754947;88;20212;-78
2021/10/30 21:03:15;;;;;;;8.55;4.65;;;12.50;99.90;;;;;;6746703;88;20235;-77
2021/10/30 21:13:16;;;;;;;7.37;4.50;;;12.60;99.90;;;;;;6750998;88;20184;-77
2021/10/30 21:23:16;;;;;;;6.28;4.35;;;12.60;99.90;;;;;;6737792;88;20189;-77
2021/10/30 21:33:17;;;;;;;6.82;4.50;;;12.60;99.90;;;;;;6752760;88;20274;-77
2021/10/30 21:43:18;;;;;;;6.20;4.50;;;12.70;99.90;;;;;;6757126;88;20205;-78
2021/10/30 21:53:18;;;;;;;8.75;5.07;;;12.70;99.90;;;;;;6760557;88;20192;-78
2021/10/30 22:03:20;;;;;;;7.57;5.17;;;12.80;99.90;;;;;;6758521;88;20617;-77
2021/10/30 22:13:22;;;;;;;8.93;4.97;;;12.80;99.90;;;;;;6756825;88;20208;-77
2021/10/30 22:23:23;;;;;;;5.57;4.22;;;12.80;99.90;;;;;;6756590;88;20701;-79
2021/10/30 22:33:24;;;;;;;6.57;4.55;;;12.90;99.90;;;;;;6756058;88;20209;-78
2021/10/30 22:43:25;;;;;;;7.62;5.00;;;12.90;99.90;;;;;;6756800;88;20191;-78
2021/10/30 22:53:26;;;;;;;7.77;5.10;;;12.90;99.90;;;;;;6755697;88;20770;-79
2021/10/30 23:03:26;;;;;;;9.90;5.78;;;12.80;99.90;;;;;;6755618;88;21102;-78
2021/10/30 23:13:27;;;;;;;7.45;5.32;;;12.60;99.90;;;;;;6755487;88;20181;-77
2021/10/30 23:23:27;;;;;;;8.10;5.80;;;12.60;99.90;;;;;;6754537;88;20191;-78
2021/10/30 23:33:28;;;;;;;8.55;5.70;;;12.60;99.90;;;;;;6753225;88;20181;-77
2021/10/30 23:43:28;;;;;;;8.52;5.60;;;12.80;99.90;;;;;;6753468;88;20238;-77
2021/10/30 23:53:29;;;;;;;8.55;6.18;;;12.60;99.90;;;;;;6755675;88;20279;-77
